CCA188 ZBAA-ZMCK
Flight info
| Callsign | CCA188 |
|---|---|
| Flight time | N/A |
| Altitude | 38100 |
| Route | IDKEX2G IDKEX B339 ASILA A575 TOROV DCT SER |
| Aircraft | B77W/H-SDE1E2E3FGHIJ2J3J4J5M1RWXY/LB1D1 |
Departure
| Time | 2026-05-01 15:03 |
|---|---|
| Airport | Beijing Capital International Airport (ZBAA) |
Arrival
| Time | N/A |
|---|---|
| Airport | Ulaanbaatar Chinggis Khaan International Airport (ZMCK) |
| Time | Latitude | Longitude | Altitude | Speed | Heading |
|---|---|---|---|---|---|
| 2026-05-01 14:34 | 40.07348 | 116.60476 | 121 ft | 0 kts | 83° |
| 2026-05-01 14:52 | 40.07340 | 116.60349 | 128 ft | 0 kts | 353° |
| 2026-05-01 14:57 | 40.07423 | 116.60337 | 126 ft | 12 kts | 353° |
| 2026-05-01 14:57 | 40.07516 | 116.60297 | 124 ft | 16 kts | 331° |
| 2026-05-01 14:58 | 40.07599 | 116.60174 | 125 ft | 20 kts | 291° |
| 2026-05-01 14:58 | 40.07628 | 116.60022 | 127 ft | 10 kts | 268° |
| 2026-05-01 14:58 | 40.07637 | 116.59939 | 125 ft | 9 kts | 314° |
| 2026-05-01 14:58 | 40.07713 | 116.59912 | 126 ft | 14 kts | 351° |
| 2026-05-01 14:59 | 40.07821 | 116.59892 | 129 ft | 18 kts | 353° |
| 2026-05-01 14:59 | 40.07955 | 116.59872 | 126 ft | 22 kts | 353° |
| 2026-05-01 14:59 | 40.08118 | 116.59849 | 126 ft | 25 kts | 354° |
| 2026-05-01 14:59 | 40.08302 | 116.59817 | 125 ft | 28 kts | 353° |
| 2026-05-01 15:00 | 40.08728 | 116.59751 | 126 ft | 28 kts | 353° |
| 2026-05-01 15:00 | 40.08876 | 116.59728 | 126 ft | 18 kts | 353° |
| 2026-05-01 15:00 | 40.08968 | 116.59713 | 125 ft | 9 kts | 348° |
| 2026-05-01 15:01 | 40.08982 | 116.59656 | 125 ft | 8 kts | 256° |
| 2026-05-01 15:01 | 40.08981 | 116.59651 | 127 ft | 0 kts | 259° |
| 2026-05-01 15:01 | 40.08981 | 116.59649 | 127 ft | 1 kts | 259° |
| 2026-05-01 15:02 | 40.08980 | 116.59639 | 128 ft | 2 kts | 259° |
| 2026-05-01 15:02 | 40.08976 | 116.59615 | 128 ft | 6 kts | 259° |
| 2026-05-01 15:02 | 40.08928 | 116.59517 | 125 ft | 11 kts | 219° |
| 2026-05-01 15:02 | 40.08846 | 116.59500 | 125 ft | 18 kts | 174° |
| 2026-05-01 15:03 | 40.08591 | 116.59541 | 126 ft | 70 kts | 172° |
| 2026-05-01 15:03 | 40.07819 | 116.59663 | 126 ft | 150 kts | 173° |
| 2026-05-01 15:03 | 40.06613 | 116.59867 | 414 ft | 184 kts | 172° |
| 2026-05-01 15:03 | 40.05373 | 116.60094 | 1421 ft | 172 kts | 169° |
| 2026-05-01 15:04 | 40.04190 | 116.60279 | 2348 ft | 174 kts | 172° |
| 2026-05-01 15:04 | 40.02959 | 116.60767 | 2624 ft | 201 kts | 141° |
| 2026-05-01 15:04 | 40.02203 | 116.62410 | 2885 ft | 232 kts | 102° |
| 2026-05-01 15:04 | 40.02146 | 116.64621 | 3383 ft | 255 kts | 89° |
| 2026-05-01 15:05 | 40.02256 | 116.66953 | 4064 ft | 266 kts | 84° |
| 2026-05-01 15:05 | 40.02957 | 116.69237 | 4725 ft | 281 kts | 50° |
| 2026-05-01 15:05 | 40.04431 | 116.70938 | 5514 ft | 287 kts | 37° |
| 2026-05-01 15:05 | 40.06045 | 116.72550 | 6329 ft | 296 kts | 37° |
| 2026-05-01 15:06 | 40.07673 | 116.74223 | 7246 ft | 298 kts | 38° |
| 2026-05-01 15:06 | 40.09293 | 116.75920 | 8236 ft | 300 kts | 39° |
| 2026-05-01 15:06 | 40.10913 | 116.77654 | 9172 ft | 303 kts | 40° |
| 2026-05-01 15:06 | 40.12542 | 116.79424 | 10067 ft | 306 kts | 40° |
| 2026-05-01 15:07 | 40.14203 | 116.81247 | 10710 ft | 321 kts | 40° |
| 2026-05-01 15:07 | 40.15991 | 116.83221 | 10960 ft | 351 kts | 40° |
| 2026-05-01 15:07 | 40.17939 | 116.85380 | 11214 ft | 380 kts | 40° |
| 2026-05-01 15:07 | 40.20121 | 116.87396 | 11757 ft | 389 kts | 23° |
| 2026-05-01 15:08 | 40.22756 | 116.88133 | 12763 ft | 390 kts | 357° |
| 2026-05-01 15:08 | 40.25384 | 116.87390 | 14023 ft | 386 kts | 336° |
| 2026-05-01 15:08 | 40.27817 | 116.85912 | 14886 ft | 390 kts | 333° |
| 2026-05-01 15:08 | 40.30288 | 116.84442 | 15750 ft | 399 kts | 334° |
| 2026-05-01 15:09 | 40.32845 | 116.82950 | 16718 ft | 405 kts | 333° |
| 2026-05-01 15:09 | 40.35436 | 116.81440 | 17721 ft | 410 kts | 333° |
| 2026-05-01 15:09 | 40.38060 | 116.79910 | 18625 ft | 415 kts | 333° |
| 2026-05-01 15:09 | 40.40715 | 116.78365 | 19520 ft | 418 kts | 333° |
| 2026-05-01 15:10 | 40.43374 | 116.76826 | 20550 ft | 418 kts | 333° |
| 2026-05-01 15:10 | 40.48777 | 116.73673 | 22023 ft | 432 kts | 332° |
| 2026-05-01 15:10 | 40.51548 | 116.72058 | 22775 ft | 438 kts | 332° |
| 2026-05-01 15:11 | 40.54358 | 116.70423 | 23543 ft | 443 kts | 332° |
| 2026-05-01 15:11 | 40.60040 | 116.67109 | 24926 ft | 448 kts | 332° |
| 2026-05-01 15:11 | 40.62860 | 116.65466 | 25636 ft | 450 kts | 331° |
| 2026-05-01 15:12 | 40.65733 | 116.63784 | 26352 ft | 452 kts | 330° |
| 2026-05-01 15:12 | 40.71512 | 116.60388 | 27524 ft | 458 kts | 329° |
| 2026-05-01 15:12 | 40.74461 | 116.58729 | 28064 ft | 465 kts | 333° |
| 2026-05-01 15:13 | 40.84159 | 116.55950 | 29597 ft | 491 kts | 347° |
| 2026-05-01 15:14 | 40.91018 | 116.55355 | 30450 ft | 496 kts | 348° |
| 2026-05-01 15:14 | 40.94468 | 116.55080 | 30868 ft | 496 kts | 348° |
| 2026-05-01 15:14 | 41.01341 | 116.54480 | 31857 ft | 493 kts | 347° |
| 2026-05-01 15:15 | 41.08165 | 116.53834 | 32882 ft | 489 kts | 346° |
| 2026-05-01 15:15 | 41.14945 | 116.53182 | 33755 ft | 488 kts | 346° |
| 2026-05-01 15:16 | 41.21656 | 116.52256 | 34548 ft | 474 kts | 337° |
| 2026-05-01 15:16 | 41.27687 | 116.49534 | 35441 ft | 450 kts | 324° |
| 2026-05-01 15:17 | 41.33014 | 116.45486 | 36223 ft | 438 kts | 319° |
| 2026-05-01 15:18 | 41.40804 | 116.39239 | 37296 ft | 433 kts | 319° |
| 2026-05-01 15:18 | 41.43384 | 116.37181 | 37640 ft | 432 kts | 319° |
| 2026-05-01 15:19 | 41.51150 | 116.31010 | 37927 ft | 434 kts | 319° |
| 2026-05-01 15:19 | 41.58822 | 116.24929 | 37935 ft | 424 kts | 318° |
| 2026-05-01 15:20 | 41.66438 | 116.18846 | 37937 ft | 426 kts | 318° |
| 2026-05-01 15:21 | 41.71505 | 116.14796 | 37942 ft | 427 kts | 318° |
| 2026-05-01 15:21 | 41.76622 | 116.10699 | 37943 ft | 429 kts | 318° |
| 2026-05-01 15:22 | 41.84315 | 116.04530 | 37941 ft | 430 kts | 318° |
| 2026-05-01 15:22 | 41.89442 | 116.00409 | 37947 ft | 429 kts | 318° |
| 2026-05-01 15:23 | 41.94206 | 115.95834 | 37950 ft | 410 kts | 306° |
| 2026-05-01 15:23 | 41.97910 | 115.90119 | 37996 ft | 403 kts | 297° |
| 2026-05-01 15:24 | 42.00673 | 115.83647 | 37957 ft | 397 kts | 291° |
| 2026-05-01 15:24 | 42.03274 | 115.77093 | 37955 ft | 397 kts | 291° |
| 2026-05-01 15:25 | 42.05874 | 115.70590 | 37961 ft | 396 kts | 291° |
| 2026-05-01 15:25 | 42.08499 | 115.64062 | 37956 ft | 396 kts | 291° |
| 2026-05-01 15:26 | 42.11123 | 115.57531 | 37954 ft | 396 kts | 291° |
| 2026-05-01 15:26 | 42.13743 | 115.51002 | 37949 ft | 396 kts | 291° |
| 2026-05-01 15:27 | 42.16358 | 115.44470 | 37951 ft | 396 kts | 291° |
| 2026-05-01 15:28 | 42.20258 | 115.34701 | 37961 ft | 396 kts | 291° |
| 2026-05-01 15:28 | 42.22864 | 115.28156 | 37950 ft | 396 kts | 291° |
| 2026-05-01 15:29 | 42.26657 | 115.18269 | 37952 ft | 394 kts | 290° |
| 2026-05-01 15:30 | 42.31175 | 115.06141 | 37959 ft | 394 kts | 290° |
| 2026-05-01 15:31 | 42.38990 | 114.85169 | 37955 ft | 395 kts | 290° |
| 2026-05-01 15:32 | 42.43919 | 114.71869 | 38016 ft | 394 kts | 290° |
| 2026-05-01 15:34 | 42.51272 | 114.51908 | 38056 ft | 396 kts | 289° |